Time;durP1;ratioP1;P1;durP2;ratioP2;P2;SDS_P1;SDS_P2;PMS_P1;PMS_P2;Temp;Humidity;BMP_temperature;BMP_pressure;BME280_temperature;BME280_humidity;BME280_pressure;Samples;Min_cycle;Max_cycle;Signal;HPM_P1;HPM_P2
2022/05/08 00:01:57;;;;;;;0.47;0.30;;;23.50;82.00;;;;;;4978452;28;20042;-71
2022/05/08 00:04:24;;;;;;;0.85;0.30;;;24.10;80.20;;;;;;4990624;28;20147;-72
2022/05/08 00:06:52;;;;;;;1.30;0.50;;;24.00;80.80;;;;;;4988136;28;20104;-71
2022/05/08 00:09:19;;;;;;;0.82;0.40;;;24.00;79.00;;;;;;4990183;28;20027;-71
2022/05/08 00:11:46;;;;;;;0.70;0.30;;;23.90;78.80;;;;;;4985519;28;20041;-72
2022/05/08 00:14:13;;;;;;;1.10;0.70;;;23.80;80.30;;;;;;4984929;28;20305;-71
2022/05/08 00:16:41;;;;;;;1.35;0.50;;;24.00;79.80;;;;;;4983558;28;20030;-70
2022/05/08 00:19:08;;;;;;;1.45;0.32;;;24.30;80.20;;;;;;4989208;28;20026;-71
2022/05/08 00:21:35;;;;;;;1.15;0.40;;;24.70;80.40;;;;;;4988208;28;20022;-71
2022/05/08 00:24:03;;;;;;;1.20;0.40;;;25.10;80.60;;;;;;4988830;28;20110;-72
2022/05/08 00:26:30;;;;;;;0.73;0.40;;;25.60;78.90;;;;;;4987779;28;20043;-71
2022/05/08 00:28:58;;;;;;;1.75;0.50;;;25.80;80.20;;;;;;4990160;28;20077;-71
2022/05/08 00:31:25;;;;;;;1.55;0.40;;;26.10;77.80;;;;;;4986191;28;20121;-72
2022/05/08 00:33:53;;;;;;;1.75;0.25;;;26.30;77.70;;;;;;4989209;28;20050;-70
2022/05/08 00:36:20;;;;;;;0.75;0.28;;;26.30;79.40;;;;;;4981013;28;20274;-71
2022/05/08 00:38:48;;;;;;;1.63;1.00;;;26.40;76.30;;;;;;4988471;28;20113;-71
2022/05/08 00:41:15;;;;;;;2.92;0.40;;;27.00;75.90;;;;;;4987714;28;20072;-71
2022/05/08 00:43:43;;;;;;;0.52;0.20;;;27.30;73.60;;;;;;4988991;28;20093;-71
2022/05/08 00:46:12;;;;;;;0.77;0.30;;;27.20;74.60;;;;;;4986625;28;20488;-70
2022/05/08 00:48:40;;;;;;;0.65;0.28;;;27.00;73.40;;;;;;4986708;28;20041;-71
2022/05/08 00:51:13;;;;;;;0.47;0.10;;;26.90;75.90;;;;;;4986857;28;20089;-71
2022/05/08 00:53:42;;;;;;;0.50;0.20;;;27.00;73.80;;;;;;4978556;28;20050;-74
2022/05/08 00:56:14;;;;;;;1.85;0.40;;;26.90;73.00;;;;;;4986234;28;20030;-73
2022/05/08 00:58:50;;;;;;;0.95;0.10;;;27.30;72.40;;;;;;4989791;28;20451;-73
2022/05/08 01:01:19;;;;;;;0.20;0.08;;;27.30;72.50;;;;;;4971054;28;20051;-72
2022/05/08 01:03:47;;;;;;;0.70;0.10;;;27.60;72.20;;;;;;4970962;28;20110;-74
2022/05/08 01:06:16;;;;;;;1.17;0.17;;;28.10;72.70;;;;;;4968881;28;20049;-72
2022/05/08 01:08:46;;;;;;;0.60;0.10;;;28.50;72.50;;;;;;4952417;28;20113;-73
2022/05/08 01:11:14;;;;;;;0.38;0.10;;;28.20;72.10;;;;;;4950391;28;20039;-73
2022/05/08 01:13:43;;;;;;;0.60;0.10;;;28.40;72.20;;;;;;4969471;28;20031;-73
2022/05/08 01:16:14;;;;;;;0.20;0.10;;;28.40;70.50;;;;;;4972865;28;20023;-73
2022/05/08 01:18:42;;;;;;;0.60;0.10;;;28.50;70.80;;;;;;4973589;28;20029;-73
2022/05/08 01:21:10;;;;;;;0.98;0.10;;;28.50;69.90;;;;;;4971419;28;20039;-74
2022/05/08 01:23:38;;;;;;;0.10;0.00;;;28.50;71.40;;;;;;4970736;28;20030;-74
2022/05/08 01:26:06;;;;;;;1.10;0.10;;;28.50;71.10;;;;;;4972112;28;20087;-74
2022/05/08 01:28:34;;;;;;;0.47;0.10;;;28.60;69.10;;;;;;4967942;28;20433;-73
2022/05/08 01:31:01;;;;;;;0.80;0.10;;;28.00;70.80;;;;;;4968527;28;20031;-73
2022/05/08 01:33:29;;;;;;;1.35;0.30;;;28.30;72.50;;;;;;4968788;28;20031;-73
2022/05/08 01:36:01;;;;;;;0.85;0.10;;;28.80;70.80;;;;;;4970703;28;20023;-73
2022/05/08 01:38:28;;;;;;;0.50;0.10;;;29.00;70.10;;;;;;4972404;28;20069;-73
2022/05/08 01:40:57;;;;;;;0.00;0.00;;;28.80;68.30;;;;;;4972581;28;20027;-71
2022/05/08 01:43:24;;;;;;;0.50;0.10;;;28.40;69.50;;;;;;4972515;28;20039;-72
2022/05/08 01:45:54;;;;;;;0.05;0.03;;;28.90;70.60;;;;;;4969127;28;20396;-72
2022/05/08 01:48:27;;;;;;;0.15;0.10;;;29.10;68.00;;;;;;4966762;28;20038;-72
2022/05/08 01:50:57;;;;;;;1.23;0.10;;;28.80;69.40;;;;;;4962124;28;20030;-71
2022/05/08 01:53:27;;;;;;;0.15;0.10;;;29.10;69.40;;;;;;4963312;28;20037;-71
2022/05/08 01:55:56;;;;;;;0.43;0.00;;;29.20;68.40;;;;;;4961544;28;20058;-71
2022/05/08 01:58:28;;;;;;;0.70;0.08;;;29.10;69.70;;;;;;4962646;28;20041;-73
2022/05/08 02:00:57;;;;;;;0.20;0.10;;;29.20;69.50;;;;;;4963735;28;20102;-71
2022/05/08 02:03:26;;;;;;;0.30;0.10;;;29.20;69.20;;;;;;4967213;28;20509;-73
2022/05/08 02:05:54;;;;;;;0.90;0.20;;;29.10;68.70;;;;;;4950777;28;20034;-72
2022/05/08 02:08:21;;;;;;;0.30;0.15;;;28.80;68.50;;;;;;4971560;28;20437;-72
2022/05/08 02:10:48;;;;;;;1.10;0.10;;;28.80;69.40;;;;;;4972241;28;20077;-72
2022/05/08 02:13:16;;;;;;;0.40;0.10;;;28.50;66.60;;;;;;4965913;28;20568;-72
2022/05/08 02:15:43;;;;;;;0.22;0.20;;;27.80;67.60;;;;;;4970586;28;20039;-73
2022/05/08 02:18:11;;;;;;;0.90;0.10;;;27.90;68.00;;;;;;4968076;28;20366;-71
2022/05/08 02:20:39;;;;;;;0.75;0.10;;;28.00;68.20;;;;;;4966026;28;20027;-74
2022/05/08 02:23:07;;;;;;;0.30;0.03;;;27.90;67.70;;;;;;4964590;28;20034;-73
2022/05/08 02:25:34;;;;;;;0.80;0.10;;;27.60;67.80;;;;;;4972208;28;20058;-73
2022/05/08 02:28:02;;;;;;;0.10;0.00;;;27.60;69.60;;;;;;4968653;28;22445;-71
2022/05/08 02:30:29;;;;;;;0.73;0.10;;;27.60;69.60;;;;;;4970843;28;20030;-72
2022/05/08 02:32:57;;;;;;;1.65;0.13;;;27.50;69.30;;;;;;4971128;28;20030;-72
2022/05/08 02:35:25;;;;;;;1.30;0.30;;;27.50;69.20;;;;;;4977015;28;20031;-73
2022/05/08 02:37:54;;;;;;;0.20;0.10;;;27.20;68.50;;;;;;4972568;28;20046;-73
2022/05/08 02:40:23;;;;;;;0.90;0.00;;;27.20;69.60;;;;;;4973356;28;20030;-73
2022/05/08 02:42:51;;;;;;;0.30;0.10;;;27.30;69.90;;;;;;4970852;28;20456;-73
2022/05/08 02:45:19;;;;;;;1.08;0.00;;;27.50;69.40;;;;;;4968100;28;20066;-73
2022/05/08 02:47:48;;;;;;;0.57;0.00;;;27.60;70.80;;;;;;4969481;28;20072;-73
2022/05/08 02:50:17;;;;;;;0.52;0.32;;;27.30;69.20;;;;;;4950483;28;20492;-73
2022/05/08 02:52:44;;;;;;;2.30;0.30;;;27.00;69.20;;;;;;4968550;28;20027;-72
2022/05/08 03:00:45;;;;;;;0.82;0.17;;;27.10;69.40;;;;;;4964095;28;20054;-71
2022/05/08 03:03:14;;;;;;;0.20;0.10;;;27.10;69.60;;;;;;4967914;28;20038;-71
2022/05/08 03:05:44;;;;;;;0.20;0.10;;;27.20;70.20;;;;;;4968276;28;20445;-73
2022/05/08 03:08:14;;;;;;;0.22;0.10;;;27.10;69.50;;;;;;4970326;28;20552;-73
2022/05/08 03:13:29;;;;;;;1.75;0.43;;;27.00;69.40;;;;;;4968740;28;20101;-71
2022/05/08 03:15:56;;;;;;;1.42;0.03;;;26.60;70.20;;;;;;4970603;28;20041;-72
2022/05/08 03:18:23;;;;;;;1.40;0.22;;;26.40;69.70;;;;;;4968579;28;20034;-73
2022/05/08 03:20:51;;;;;;;1.65;0.10;;;26.10;69.30;;;;;;4970735;28;20035;-72
2022/05/08 03:23:18;;;;;;;1.70;0.93;;;25.60;70.20;;;;;;4969192;28;20047;-72
2022/05/08 03:25:45;;;;;;;0.90;0.40;;;25.10;70.50;;;;;;4966160;28;20033;-72
2022/05/08 03:28:13;;;;;;;0.20;0.10;;;24.70;71.40;;;;;;4966303;28;20467;-72
2022/05/08 03:30:41;;;;;;;2.75;0.10;;;24.70;70.90;;;;;;4971414;28;20110;-73
2022/05/08 03:33:09;;;;;;;0.65;0.13;;;24.70;72.30;;;;;;4967105;28;20037;-73
2022/05/08 03:35:37;;;;;;;0.57;0.20;;;24.80;72.70;;;;;;4969535;28;20033;-71
2022/05/08 03:38:06;;;;;;;0.22;0.00;;;24.80;72.10;;;;;;4967279;28;20027;-72
2022/05/08 03:40:34;;;;;;;0.08;0.00;;;24.60;72.00;;;;;;4969637;28;20030;-72
2022/05/08 03:43:02;;;;;;;0.65;0.17;;;24.30;72.20;;;;;;4968154;28;20042;-73
2022/05/08 03:45:30;;;;;;;0.50;0.45;;;24.00;74.10;;;;;;4969385;28;20019;-72
2022/05/08 03:48:01;;;;;;;1.30;0.60;;;23.80;73.90;;;;;;4966135;28;20508;-72
2022/05/08 03:50:29;;;;;;;0.10;0.10;;;23.30;74.10;;;;;;4966295;28;20077;-72
2022/05/08 03:53:02;;;;;;;0.70;0.38;;;23.00;74.40;;;;;;4962939;28;20045;-72
2022/05/08 03:55:32;;;;;;;2.30;0.30;;;22.90;75.20;;;;;;4970143;28;20031;-72
2022/05/08 03:57:59;;;;;;;0.60;0.10;;;22.90;75.20;;;;;;4972408;28;20031;-72
2022/05/08 04:00:27;;;;;;;1.95;0.10;;;23.00;75.40;;;;;;4968953;28;20035;-72
2022/05/08 04:02:55;;;;;;;0.50;0.10;;;22.90;75.40;;;;;;4965101;28;20062;-73
2022/05/08 04:05:23;;;;;;;0.03;0.03;;;22.70;75.20;;;;;;4972279;28;20033;-71
2022/05/08 04:07:50;;;;;;;0.10;0.10;;;22.70;75.90;;;;;;4968979;28;20042;-72
2022/05/08 04:10:17;;;;;;;0.70;0.08;;;22.60;76.20;;;;;;4970308;28;20030;-73
2022/05/08 04:12:46;;;;;;;1.48;0.10;;;22.60;76.80;;;;;;4970081;28;20592;-71
2022/05/08 04:17:59;;;;;;;1.00;0.17;;;22.20;77.70;;;;;;4970675;28;20600;-71
2022/05/08 04:20:26;;;;;;;0.32;0.10;;;22.10;77.70;;;;;;4970306;28;20397;-72
2022/05/08 04:25:39;;;;;;;1.10;0.08;;;21.90;78.20;;;;;;4971285;28;20030;-74
2022/05/08 04:28:06;;;;;;;1.48;0.10;;;21.80;77.80;;;;;;4970370;28;20039;-72
2022/05/08 04:30:34;;;;;;;0.52;0.10;;;21.70;78.30;;;;;;4971680;28;20432;-73
2022/05/08 04:33:02;;;;;;;1.25;0.10;;;21.60;77.50;;;;;;4968236;28;20046;-72
2022/05/08 04:35:30;;;;;;;2.65;0.20;;;21.50;78.20;;;;;;4970591;28;20039;-73
2022/05/08 04:37:57;;;;;;;0.82;0.10;;;21.40;77.20;;;;;;4970059;28;20066;-72
2022/05/08 04:40:25;;;;;;;0.10;0.10;;;21.20;78.10;;;;;;4970954;28;20118;-70
2022/05/08 04:42:52;;;;;;;0.82;0.10;;;21.10;79.20;;;;;;4969733;28;20042;-71
2022/05/08 04:45:19;;;;;;;0.45;0.10;;;21.00;78.70;;;;;;4970431;28;20027;-73
2022/05/08 04:47:47;;;;;;;0.47;0.15;;;21.00;78.90;;;;;;4970079;28;20034;-72
2022/05/08 04:50:14;;;;;;;0.00;0.00;;;20.90;79.30;;;;;;4972716;28;20101;-72
2022/05/08 04:52:42;;;;;;;0.65;0.10;;;20.90;79.80;;;;;;4972663;28;20114;-71
2022/05/08 04:55:09;;;;;;;0.38;0.00;;;20.90;80.40;;;;;;4974704;28;20107;-71
2022/05/08 04:57:37;;;;;;;0.52;0.10;;;20.90;79.50;;;;;;4972138;28;20041;-70
2022/05/08 05:00:05;;;;;;;0.10;0.00;;;20.80;80.30;;;;;;4974347;28;20093;-72
2022/05/08 05:02:33;;;;;;;0.52;0.10;;;20.80;80.10;;;;;;4983709;28;20050;-72
2022/05/08 05:05:01;;;;;;;1.05;0.10;;;20.80;80.00;;;;;;4994536;28;20116;-72
2022/05/08 05:07:29;;;;;;;0.28;0.10;;;20.70;80.10;;;;;;4993075;28;20042;-71
2022/05/08 05:09:56;;;;;;;0.10;0.10;;;20.60;79.40;;;;;;4993423;28;20535;-71
2022/05/08 05:12:24;;;;;;;0.32;0.13;;;20.60;80.70;;;;;;4991952;28;20035;-72
2022/05/08 05:14:51;;;;;;;0.10;0.10;;;20.60;82.00;;;;;;4993993;28;20022;-72
2022/05/08 05:17:18;;;;;;;0.52;0.10;;;20.60;82.00;;;;;;4992627;28;20496;-72
2022/05/08 05:19:46;;;;;;;0.65;0.17;;;20.70;82.20;;;;;;4992535;28;20417;-71
2022/05/08 05:22:13;;;;;;;0.82;0.40;;;20.70;80.40;;;;;;4992910;28;20120;-72
2022/05/08 05:24:41;;;;;;;0.32;0.10;;;20.70;80.00;;;;;;4993018;28;20026;-71
2022/05/08 05:27:08;;;;;;;3.15;0.20;;;20.70;80.00;;;;;;4990296;28;20467;-72
2022/05/08 05:29:35;;;;;;;0.10;0.10;;;20.70;80.70;;;;;;4993519;28;20026;-74
2022/05/08 05:32:03;;;;;;;0.28;0.20;;;20.80;81.60;;;;;;4988174;28;20035;-72
2022/05/08 05:34:30;;;;;;;0.30;0.10;;;20.90;80.80;;;;;;4992925;28;20033;-71
2022/05/08 05:36:58;;;;;;;1.10;0.50;;;20.90;80.80;;;;;;4985227;28;20105;-72
2022/05/08 05:39:25;;;;;;;1.58;0.10;;;21.00;81.20;;;;;;4986684;28;20419;-72
2022/05/08 05:41:53;;;;;;;0.10;0.00;;;21.10;81.10;;;;;;4991976;28;20411;-72
2022/05/08 05:44:20;;;;;;;0.25;0.05;;;21.10;80.20;;;;;;4993260;28;20034;-72
2022/05/08 05:49:33;;;;;;;1.60;0.38;;;21.20;79.70;;;;;;4994628;28;20037;-73
2022/05/08 05:52:02;;;;;;;0.30;0.10;;;21.20;80.30;;;;;;4991875;28;20366;-73
2022/05/08 05:54:29;;;;;;;0.65;0.20;;;21.30;81.50;;;;;;4992927;28;20378;-72
2022/05/08 05:56:56;;;;;;;0.10;0.10;;;21.40;80.20;;;;;;4990000;28;20022;-73
2022/05/08 05:59:23;;;;;;;0.20;0.10;;;21.50;80.50;;;;;;4992344;28;20035;-71
2022/05/08 06:01:51;;;;;;;0.13;0.10;;;21.60;80.50;;;;;;4975704;28;20105;-73
2022/05/08 06:04:18;;;;;;;0.00;0.00;;;21.60;80.30;;;;;;4973318;28;20062;-72
2022/05/08 06:06:45;;;;;;;0.30;0.10;;;21.70;80.10;;;;;;4971479;28;20121;-71
2022/05/08 06:09:13;;;;;;;0.45;0.13;;;21.70;80.40;;;;;;4974346;28;20031;-72
2022/05/08 06:11:40;;;;;;;0.10;0.10;;;21.70;77.80;;;;;;4954824;28;20053;-72
2022/05/08 06:14:08;;;;;;;0.00;0.00;;;21.70;78.50;;;;;;4972942;28;20094;-73
2022/05/08 06:16:35;;;;;;;1.17;0.10;;;21.70;79.70;;;;;;4970261;28;20031;-73
2022/05/08 06:19:04;;;;;;;0.75;0.10;;;21.80;79.80;;;;;;4972776;28;20034;-72
2022/05/08 06:21:32;;;;;;;0.10;0.05;;;21.70;79.10;;;;;;4970738;28;20031;-73
2022/05/08 06:23:59;;;;;;;0.15;0.10;;;21.70;79.70;;;;;;4973772;28;20142;-72
2022/05/08 06:26:26;;;;;;;0.45;0.08;;;21.70;80.30;;;;;;4971705;28;20039;-73
2022/05/08 06:28:55;;;;;;;0.65;0.08;;;21.60;80.90;;;;;;4972871;28;20096;-73
2022/05/08 06:31:23;;;;;;;0.80;0.30;;;21.60;80.40;;;;;;4970657;28;20064;-72
2022/05/08 06:33:50;;;;;;;1.23;0.40;;;21.50;80.50;;;;;;4973206;28;20027;-73
2022/05/08 06:36:18;;;;;;;1.60;0.93;;;21.30;81.20;;;;;;4971437;28;20027;-73
2022/05/08 06:38:46;;;;;;;0.75;0.40;;;21.10;80.60;;;;;;4972314;28;20043;-74
2022/05/08 06:41:13;;;;;;;2.08;0.60;;;21.00;82.00;;;;;;4970430;28;20446;-72
2022/05/08 06:43:41;;;;;;;1.35;0.30;;;20.70;81.50;;;;;;4972762;28;20022;-73
2022/05/08 06:46:09;;;;;;;3.38;0.60;;;20.60;82.00;;;;;;4971501;28;20053;-73
2022/05/08 06:48:36;;;;;;;2.25;0.50;;;20.50;82.30;;;;;;4973233;28;20514;-74
2022/05/08 06:51:04;;;;;;;3.70;0.52;;;20.30;82.50;;;;;;4970894;28;20039;-73
2022/05/08 06:53:32;;;;;;;3.38;0.50;;;20.20;83.00;;;;;;4972667;28;20033;-73
2022/05/08 06:56:00;;;;;;;0.98;0.30;;;20.00;83.10;;;;;;4972464;28;20041;-74
2022/05/08 06:58:27;;;;;;;1.23;0.30;;;19.90;83.60;;;;;;4972220;28;20093;-73
2022/05/08 07:03:40;;;;;;;0.68;0.43;;;19.50;84.10;;;;;;4980160;28;20052;-72
2022/05/08 07:06:08;;;;;;;0.55;0.30;;;19.40;84.40;;;;;;4988148;28;20030;-73
2022/05/08 07:08:35;;;;;;;1.95;0.40;;;19.30;84.90;;;;;;4992443;28;20494;-72
2022/05/08 07:11:03;;;;;;;1.60;0.45;;;19.10;84.80;;;;;;4971628;28;20053;-73
2022/05/08 07:13:33;;;;;;;0.80;0.30;;;19.00;85.50;;;;;;4991575;28;20035;-73
2022/05/08 07:16:00;;;;;;;1.55;0.35;;;18.90;85.80;;;;;;4992391;28;20037;-72
2022/05/08 07:18:29;;;;;;;1.23;0.88;;;18.80;86.30;;;;;;4990084;28;20040;-73
2022/05/08 07:20:57;;;;;;;1.02;0.38;;;18.70;86.50;;;;;;4992071;28;20385;-72
2022/05/08 07:23:24;;;;;;;1.25;0.20;;;18.60;86.90;;;;;;4988630;28;20018;-73
2022/05/08 07:25:51;;;;;;;1.63;0.40;;;18.50;87.60;;;;;;4992465;28;20022;-73
2022/05/08 07:28:19;;;;;;;0.65;0.40;;;18.50;87.50;;;;;;4990283;28;20022;-73
2022/05/08 07:30:46;;;;;;;1.25;0.90;;;18.40;88.00;;;;;;4990588;28;20810;-74
2022/05/08 07:33:16;;;;;;;0.50;0.40;;;18.30;88.50;;;;;;4988503;28;20037;-74
2022/05/08 07:38:30;;;;;;;3.28;0.40;;;18.10;89.50;;;;;;4990441;28;20045;-72
2022/05/08 07:40:58;;;;;;;0.80;0.47;;;18.00;90.00;;;;;;4992302;28;20023;-74
2022/05/08 07:43:26;;;;;;;1.85;1.02;;;17.90;90.10;;;;;;4989477;28;20045;-73
2022/05/08 07:45:53;;;;;;;3.63;0.77;;;17.90;90.40;;;;;;4992508;28;20100;-74
2022/05/08 07:48:20;;;;;;;3.00;1.88;;;17.80;90.70;;;;;;4990059;28;20041;-74
2022/05/08 07:50:48;;;;;;;1.17;0.70;;;17.80;91.10;;;;;;4991114;28;20033;-73
2022/05/08 07:53:15;;;;;;;2.50;1.08;;;17.70;91.10;;;;;;4989108;28;20030;-75
2022/05/08 07:55:43;;;;;;;0.88;0.32;;;17.60;91.50;;;;;;4991381;28;20074;-73
2022/05/08 07:58:11;;;;;;;1.25;0.70;;;17.50;91.50;;;;;;4989278;28;20030;-73
2022/05/08 08:00:39;;;;;;;0.77;0.45;;;17.40;91.80;;;;;;4985106;28;20019;-75
2022/05/08 08:03:06;;;;;;;1.33;0.47;;;17.30;92.10;;;;;;4967407;28;20042;-74
2022/05/08 08:05:33;;;;;;;1.13;0.80;;;17.20;92.30;;;;;;4972388;28;20022;-74
2022/05/08 08:08:01;;;;;;;1.33;0.60;;;17.20;92.50;;;;;;4968768;28;20038;-74
2022/05/08 08:10:29;;;;;;;12.13;0.85;;;17.10;92.70;;;;;;4971685;28;20026;-74
2022/05/08 08:12:58;;;;;;;0.93;0.70;;;17.10;92.90;;;;;;4969394;28;20118;-74
2022/05/08 08:15:25;;;;;;;1.42;0.68;;;17.10;93.20;;;;;;4968754;28;20393;-73
2022/05/08 08:17:53;;;;;;;1.20;0.47;;;17.10;93.30;;;;;;4969765;28;20468;-73
2022/05/08 08:20:20;;;;;;;2.20;0.70;;;17.10;93.30;;;;;;4971812;28;20031;-75
2022/05/08 08:22:48;;;;;;;2.83;1.20;;;17.10;93.30;;;;;;4968855;28;20045;-74
2022/05/08 08:25:16;;;;;;;1.95;0.77;;;17.10;93.10;;;;;;4972858;28;20015;-74
2022/05/08 08:27:43;;;;;;;2.97;1.30;;;17.20;93.30;;;;;;4968457;28;20046;-74
2022/05/08 08:30:11;;;;;;;1.40;0.77;;;17.20;93.50;;;;;;4970284;28;20038;-74
2022/05/08 08:32:38;;;;;;;1.85;1.13;;;17.20;93.50;;;;;;4969487;28;20393;-72
2022/05/08 08:35:06;;;;;;;2.65;2.00;;;17.20;93.70;;;;;;4971940;28;20461;-73
2022/05/08 08:37:34;;;;;;;5.80;3.80;;;17.20;94.00;;;;;;4970288;28;20077;-72
2022/05/08 08:40:01;;;;;;;6.50;4.22;;;17.20;94.20;;;;;;4971266;28;20030;-73
2022/05/08 08:42:31;;;;;;;9.02;5.05;;;17.20;94.30;;;;;;4967528;28;20069;-73
2022/05/08 08:48:05;;;;;;;2.13;1.30;;;17.20;94.20;;;;;;4970364;28;20525;-74
2022/05/08 08:50:34;;;;;;;2.55;1.73;;;17.10;93.20;;;;;;4972200;28;20034;-72
2022/05/08 08:53:06;;;;;;;2.05;1.33;;;17.10;93.30;;;;;;4969218;28;20047;-72
2022/05/08 08:55:33;;;;;;;2.75;1.20;;;17.10;93.90;;;;;;4970385;28;20023;-72
2022/05/08 08:58:01;;;;;;;1.90;1.17;;;17.20;94.50;;;;;;4970829;28;20102;-73
2022/05/08 09:00:28;;;;;;;3.83;2.47;;;17.10;94.40;;;;;;4970239;28;20116;-71
2022/05/08 09:02:56;;;;;;;4.20;1.95;;;17.10;94.60;;;;;;4969671;28;20081;-74
2022/05/08 09:05:25;;;;;;;4.10;2.20;;;17.10;95.00;;;;;;4971621;28;20390;-74
2022/05/08 09:07:53;;;;;;;4.13;2.33;;;17.10;95.30;;;;;;4970444;28;20046;-72
2022/05/08 09:10:35;;;;;;;9.07;4.13;;;17.00;95.20;;;;;;4970756;28;20030;-72
2022/05/08 09:13:05;;;;;;;4.32;2.85;;;17.00;95.40;;;;;;4968234;28;20494;-74
2022/05/08 09:15:34;;;;;;;4.90;2.40;;;16.90;95.70;;;;;;4971039;28;20023;-72
2022/05/08 09:18:04;;;;;;;7.63;3.75;;;16.90;95.80;;;;;;4969858;28;20037;-72
2022/05/08 09:20:34;;;;;;;4.43;1.90;;;16.80;95.90;;;;;;4971766;28;20026;-72
2022/05/08 09:23:10;;;;;;;2.63;1.55;;;16.80;95.90;;;;;;4969900;28;20118;-73
2022/05/08 09:25:45;;;;;;;4.63;1.52;;;16.70;95.80;;;;;;4971171;28;20102;-73
2022/05/08 09:28:26;;;;;;;4.10;1.52;;;16.70;95.60;;;;;;4970114;28;20038;-74
2022/05/08 09:30:59;;;;;;;4.38;1.98;;;16.70;95.80;;;;;;4969464;28;20041;-71
2022/05/08 09:33:27;;;;;;;4.97;2.13;;;16.60;95.50;;;;;;4969721;28;20062;-74
2022/05/08 09:35:55;;;;;;;9.50;3.17;;;16.60;95.50;;;;;;4973011;28;20098;-73
2022/05/08 09:38:23;;;;;;;8.90;4.63;;;16.60;95.90;;;;;;4972792;28;20046;-72
2022/05/08 09:41:05;;;;;;;6.93;4.90;;;16.60;96.20;;;;;;4974998;28;20031;-75
2022/05/08 09:43:34;;;;;;;5.25;3.67;;;16.50;95.90;;;;;;4973597;28;20125;-75
2022/05/08 09:46:03;;;;;;;8.38;3.97;;;16.50;95.90;;;;;;4972259;28;20030;-72
2022/05/08 09:48:36;;;;;;;6.82;3.33;;;16.40;96.20;;;;;;4974163;28;20046;-74
2022/05/08 09:51:07;;;;;;;8.07;4.07;;;16.30;96.30;;;;;;4972842;28;20026;-72
2022/05/08 09:53:37;;;;;;;6.35;3.53;;;16.20;96.30;;;;;;4974925;28;20034;-72
2022/05/08 09:56:09;;;;;;;5.43;3.45;;;16.20;96.20;;;;;;4973875;28;20466;-73
2022/05/08 09:58:41;;;;;;;7.03;4.45;;;16.00;95.90;;;;;;4973861;28;20038;-74
2022/05/08 10:01:08;;;;;;;8.18;4.70;;;16.00;95.70;;;;;;4974962;28;20504;-72
2022/05/08 10:03:36;;;;;;;10.55;4.88;;;16.00;95.70;;;;;;4991581;28;20034;-74
2022/05/08 10:06:04;;;;;;;8.90;5.30;;;15.90;96.00;;;;;;4990402;28;20685;-73
2022/05/08 10:08:43;;;;;;;6.93;4.35;;;15.80;96.00;;;;;;4989946;28;20034;-72
2022/05/08 10:14:08;;;;;;;11.50;6.32;;;15.70;96.10;;;;;;4988161;28;20077;-73
2022/05/08 10:16:52;;;;;;;9.80;6.68;;;15.50;96.20;;;;;;4973570;28;20416;-72
2022/05/08 10:19:19;;;;;;;14.52;7.20;;;15.50;96.30;;;;;;4989398;28;20105;-74
2022/05/08 10:22:06;;;;;;;12.77;7.18;;;15.40;96.60;;;;;;4989896;28;20377;-74
2022/05/08 10:24:40;;;;;;;14.20;7.57;;;15.20;96.90;;;;;;4992182;28;20035;-73
2022/05/08 10:27:25;;;;;;;13.27;8.63;;;15.10;96.70;;;;;;4990019;28;20038;-73
2022/05/08 10:29:53;;;;;;;12.07;6.95;;;15.00;97.40;;;;;;4987923;28;20115;-73
2022/05/08 10:32:32;;;;;;;13.32;7.53;;;14.90;97.60;;;;;;4990156;28;20110;-74
2022/05/08 10:35:17;;;;;;;11.90;7.63;;;14.80;97.90;;;;;;4991184;28;20027;-73
2022/05/08 10:37:46;;;;;;;10.15;5.88;;;14.70;98.00;;;;;;4989451;28;20122;-72
2022/05/08 10:40:28;;;;;;;5.78;4.10;;;14.60;98.20;;;;;;4990459;28;20031;-73
2022/05/08 10:43:26;;;;;;;4.60;2.67;;;14.50;98.20;;;;;;4989067;28;20515;-74
2022/05/08 10:45:54;;;;;;;6.20;3.42;;;14.50;98.20;;;;;;4978975;28;20038;-73
2022/05/08 10:48:25;;;;;;;5.97;3.25;;;14.50;98.40;;;;;;4988497;28;20061;-74
2022/05/08 10:50:54;;;;;;;7.00;4.28;;;14.50;98.50;;;;;;4989019;28;20030;-72
2022/05/08 10:53:33;;;;;;;7.50;3.30;;;14.50;98.60;;;;;;4990742;28;20381;-72
2022/05/08 10:56:11;;;;;;;4.20;2.60;;;14.40;98.70;;;;;;4989994;28;20022;-74
2022/05/08 10:58:50;;;;;;;4.55;2.03;;;14.40;98.90;;;;;;4990514;28;20133;-74
2022/05/08 11:01:17;;;;;;;4.60;1.90;;;14.40;99.00;;;;;;4978383;28;20498;-73
2022/05/08 11:03:45;;;;;;;3.28;1.60;;;14.40;98.90;;;;;;4968555;28;20141;-74
2022/05/08 11:06:20;;;;;;;3.55;1.88;;;14.30;99.00;;;;;;4971435;28;20039;-73
2022/05/08 11:08:48;;;;;;;2.95;1.92;;;14.30;99.10;;;;;;4971933;28;20035;-73
2022/05/08 11:11:15;;;;;;;5.60;1.70;;;14.30;99.20;;;;;;4970502;28;20061;-74
2022/05/08 11:13:51;;;;;;;6.72;1.60;;;14.20;99.40;;;;;;4970686;28;20488;-73
2022/05/08 11:16:36;;;;;;;6.32;1.55;;;14.20;99.40;;;;;;4971107;28;20396;-73
2022/05/08 11:19:04;;;;;;;3.80;1.55;;;14.20;99.60;;;;;;4969710;28;20038;-71
2022/05/08 11:21:32;;;;;;;2.95;1.33;;;14.20;99.60;;;;;;4966858;28;20042;-74
2022/05/08 11:24:00;;;;;;;2.63;1.60;;;14.20;99.60;;;;;;4971206;28;20030;-73
2022/05/08 11:26:29;;;;;;;2.78;1.65;;;14.10;99.70;;;;;;4967137;28;20617;-73
2022/05/08 11:28:58;;;;;;;2.83;1.55;;;14.10;99.80;;;;;;4964763;28;20054;-73
2022/05/08 11:31:29;;;;;;;4.28;3.30;;;14.10;99.90;;;;;;4963579;28;20041;-75
2022/05/08 11:36:45;;;;;;;6.05;2.80;;;13.90;99.90;;;;;;4962105;28;20244;-74
2022/05/08 11:39:17;;;;;;;4.72;2.60;;;13.70;99.90;;;;;;4960660;28;20113;-73
2022/05/08 11:41:47;;;;;;;5.05;3.40;;;13.60;99.90;;;;;;4960525;28;20150;-72
2022/05/08 11:44:14;;;;;;;4.40;2.88;;;13.50;99.90;;;;;;4963647;28;20489;-72
2022/05/08 11:46:46;;;;;;;4.43;2.30;;;13.50;99.90;;;;;;4968530;28;20097;-72
2022/05/08 11:49:17;;;;;;;3.38;2.10;;;13.40;99.90;;;;;;4971417;28;20030;-73
2022/05/08 11:51:46;;;;;;;5.28;2.00;;;13.40;99.90;;;;;;4964360;28;20030;-74
2022/05/08 11:54:35;;;;;;;4.28;1.85;;;13.30;99.90;;;;;;4970313;28;20031;-73
2022/05/08 11:57:18;;;;;;;4.50;2.30;;;13.30;99.90;;;;;;4968642;28;20493;-73
2022/05/08 12:00:12;;;;;;;5.72;2.25;;;13.20;99.90;;;;;;4970717;28;20635;-73
2022/05/08 12:02:44;;;;;;;4.80;2.05;;;13.10;99.90;;;;;;4977913;28;20767;-71
2022/05/08 12:05:25;;;;;;;4.28;2.78;;;13.00;99.90;;;;;;4980823;28;20519;-72
2022/05/08 12:07:53;;;;;;;4.75;2.28;;;13.00;99.90;;;;;;4980150;28;20113;-71
2022/05/08 12:10:21;;;;;;;6.47;4.03;;;12.90;99.90;;;;;;4981315;28;20602;-72
2022/05/08 12:13:05;;;;;;;3.47;2.92;;;12.80;99.90;;;;;;4978214;28;20037;-71
2022/05/08 12:15:34;;;;;;;5.07;3.75;;;12.80;99.90;;;;;;4989508;28;20023;-72
2022/05/08 12:18:04;;;;;;;5.10;3.38;;;12.70;99.90;;;;;;4988096;28;20073;-73
2022/05/08 12:20:37;;;;;;;5.00;3.70;;;12.60;99.90;;;;;;4990481;28;20091;-74
2022/05/08 12:23:07;;;;;;;3.95;3.20;;;12.70;99.90;;;;;;4988716;28;20026;-73
2022/05/08 12:25:41;;;;;;;4.47;2.50;;;12.60;99.90;;;;;;4991408;28;20026;-73
2022/05/08 12:28:13;;;;;;;4.05;2.35;;;12.50;99.90;;;;;;4988615;28;20125;-73
2022/05/08 12:30:40;;;;;;;4.70;3.38;;;12.50;99.90;;;;;;4989451;28;20027;-73
2022/05/08 12:33:07;;;;;;;3.58;2.85;;;12.50;99.90;;;;;;4986229;28;20393;-73
2022/05/08 12:35:37;;;;;;;4.45;2.30;;;12.40;99.90;;;;;;4987941;28;20037;-74
2022/05/08 12:38:04;;;;;;;2.50;1.77;;;12.40;99.90;;;;;;4979475;28;20023;-74
2022/05/08 12:40:32;;;;;;;3.88;1.60;;;12.40;99.90;;;;;;4988168;28;20134;-73
2022/05/08 12:43:03;;;;;;;4.72;1.60;;;12.40;99.90;;;;;;4985258;28;20026;-73
2022/05/08 12:45:30;;;;;;;1.85;1.10;;;12.40;99.90;;;;;;4989765;28;20116;-72
2022/05/08 12:47:57;;;;;;;0.65;0.50;;;12.50;99.90;;;;;;4983445;28;20103;-73
2022/05/08 12:50:25;;;;;;;1.75;0.68;;;12.60;99.90;;;;;;4988602;28;20018;-73
2022/05/08 12:52:56;;;;;;;1.95;1.08;;;12.60;99.90;;;;;;4986736;28;20132;-73
2022/05/08 12:55:23;;;;;;;2.05;1.20;;;12.60;99.90;;;;;;4988378;28;20041;-73
2022/05/08 13:00:36;;;;;;;1.58;1.00;;;12.70;99.90;;;;;;4987023;28;20045;-74
2022/05/08 13:03:03;;;;;;;2.67;0.50;;;12.70;99.90;;;;;;4985842;28;20084;-72
2022/05/08 13:05:32;;;;;;;0.70;0.40;;;12.80;99.90;;;;;;4986422;28;20030;-72
2022/05/08 13:07:59;;;;;;;0.73;0.40;;;12.80;99.90;;;;;;4985885;28;20046;-73
2022/05/08 13:10:27;;;;;;;0.45;0.30;;;12.80;99.90;;;;;;4988785;28;20416;-73
2022/05/08 13:12:54;;;;;;;1.52;0.52;;;12.80;99.90;;;;;;4991206;28;20050;-72
2022/05/08 13:15:23;;;;;;;1.30;1.00;;;12.70;99.90;;;;;;4994723;28;20033;-72
2022/05/08 13:17:50;;;;;;;0.95;0.40;;;12.70;99.90;;;;;;4991879;28;20162;-73
2022/05/08 13:20:18;;;;;;;2.20;0.88;;;12.60;99.90;;;;;;4991236;28;20061;-72
2022/05/08 13:22:45;;;;;;;2.40;0.50;;;12.60;99.90;;;;;;4989578;28;20034;-73
2022/05/08 13:25:13;;;;;;;0.52;0.30;;;12.60;99.90;;;;;;4991863;28;20030;-73
2022/05/08 13:27:40;;;;;;;1.15;0.50;;;12.60;99.90;;;;;;4991033;28;20456;-74
2022/05/08 13:30:08;;;;;;;0.73;0.30;;;12.70;99.90;;;;;;4986343;28;20092;-74